Kingsville, TX

9:10 AM CDT on September 01, 2015 (GMT -0500)
Kingsville Naval Air Station | | Change Station
CLOSE
Current Station
Airport
Location: Kingsville NAS,
Elevation: 49 ft
Nearby Weather Stations

Elev 49 ft 27.51 °N, 97.81 °W | Updated 14 minutes ago

Partly Cloudy
Partly Cloudy
76 °F
Feels Like 76 °F
N
7
Wind Variable Wind from ESE

Today
High -- | Low -- °F
--% Chance of Precip.
Yesterday
High -- | Low -- °F
Precip. -- in
7:10 AM 7:51 PM
Waning Gibbous, 88% visible
Pressure 29.99 in
Visibility 10.0 miles
Clouds Few 1600 ft
Few 5500 ft
Scattered Clouds 13000 ft
Scattered Clouds 25000 ft
Dew Point 76 °F
Humidity 100%
Rainfall 0.04 in
Snow Depth Not available.
UV 1 out of 12
Pollen 5.70 out of 12
Air Quality Not available.
Flu Activity Not available.
METAR KNQI 011356Z 11006KT 10SM FEW016 FEW055 SCT130 SCT250 24/24 A2999 RMK AO2 SLP153 T2 SET T02440244 $
Pressure 29.99 in
Visibility 10.0 miles
Clouds Few 1600 ft
Few 5500 ft
Scattered Clouds 13000 ft
Scattered Clouds 25000 ft
Dew Point 76 °F
Humidity 100%
Rainfall 0.04 in
Snow Depth Not available.
UV 1 out of 12
Pollen 5.70 out of 12
Air Quality Not available.
Flu Activity Not available.
METAR KNQI 011356Z 11006KT 10SM FEW016 FEW055 SCT130 SCT250 24/24 A2999 RMK AO2 SLP153 T2 SET T02440244 $

10-Day Weather Forecast

×

Almanac

Astronomy

Sep. 01, 2015 Rise Set
Actual Time
Civil Twilight
Nautical Twilight
Astronomical Twilight
Moon
Length of Visible Light
Length of Day
Tomorrow will be .
, % of the Moon is Illuminated

Today's Extremes

State Highs State Lows

Community

WunderPhotos

Upload Photos

1,851,512 photos uploaded!

WunderBlogs® & News

Nearby

Air Quality

  Air Quality AQ Index Pollutant
Not available.

Snow Depth

Station Depth Elevation

Earthquake Activity

City Distance Mag. Time & Date
Minimum magnitude displayed is 2.5.

Coastal Water Temperatures

Place Temperature

Stations

Nearby Weather Stations

Station Location Temp. Windchill Dew Point Humidity Wind Precip. Elev Updated Type